sensor_id;sensor_type;location;lat;lon;timestamp;P1;durP1;ratioP1;P2;durP2;ratioP2
40629;SDS011;26329;40.388;-3.710;2022-07-24T00:05:46;4.82;;;2.92;;
40629;SDS011;26329;40.388;-3.710;2022-07-24T00:15:47;7.47;;;2.50;;
40629;SDS011;26329;40.388;-3.710;2022-07-24T00:25:49;8.65;;;2.42;;
40629;SDS011;26329;40.388;-3.710;2022-07-24T00:35:50;5.85;;;1.80;;
40629;SDS011;26329;40.388;-3.710;2022-07-24T00:45:53;5.28;;;1.95;;
40629;SDS011;26329;40.388;-3.710;2022-07-24T00:55:54;4.63;;;2.15;;
40629;SDS011;26329;40.388;-3.710;2022-07-24T01:05:55;6.03;;;2.58;;
40629;SDS011;26329;40.388;-3.710;2022-07-24T01:15:59;2.55;;;1.60;;
40629;SDS011;26329;40.388;-3.710;2022-07-24T01:26:05;3.95;;;2.00;;
40629;SDS011;26329;40.388;-3.710;2022-07-24T01:36:11;3.47;;;2.20;;
40629;SDS011;26329;40.388;-3.710;2022-07-24T01:46:32;3.28;;;2.30;;
40629;SDS011;26329;40.388;-3.710;2022-07-24T01:56:47;4.57;;;1.90;;
40629;SDS011;26329;40.388;-3.710;2022-07-24T02:06:56;3.20;;;2.35;;
40629;SDS011;26329;40.388;-3.710;2022-07-24T02:17:08;7.88;;;2.03;;
40629;SDS011;26329;40.388;-3.710;2022-07-24T02:27:13;7.57;;;2.70;;
40629;SDS011;26329;40.388;-3.710;2022-07-24T02:37:26;2.17;;;1.90;;
40629;SDS011;26329;40.388;-3.710;2022-07-24T02:47:45;3.08;;;2.03;;
40629;SDS011;26329;40.388;-3.710;2022-07-24T02:57:58;4.57;;;1.55;;
40629;SDS011;26329;40.388;-3.710;2022-07-24T03:08:04;9.43;;;4.40;;
40629;SDS011;26329;40.388;-3.710;2022-07-24T03:18:09;8.05;;;2.30;;
40629;SDS011;26329;40.388;-3.710;2022-07-24T03:28:17;4.03;;;1.67;;
40629;SDS011;26329;40.388;-3.710;2022-07-24T03:38:23;4.72;;;1.52;;
40629;SDS011;26329;40.388;-3.710;2022-07-24T03:48:27;6.32;;;1.73;;
40629;SDS011;26329;40.388;-3.710;2022-07-24T03:58:30;10.38;;;1.95;;
40629;SDS011;26329;40.388;-3.710;2022-07-24T04:08:32;8.15;;;2.17;;
40629;SDS011;26329;40.388;-3.710;2022-07-24T04:18:35;4.90;;;1.90;;
40629;SDS011;26329;40.388;-3.710;2022-07-24T04:28:37;6.90;;;1.80;;
40629;SDS011;26329;40.388;-3.710;2022-07-24T04:38:39;6.55;;;2.10;;
40629;SDS011;26329;40.388;-3.710;2022-07-24T04:48:46;6.22;;;1.85;;
40629;SDS011;26329;40.388;-3.710;2022-07-24T04:58:48;8.32;;;2.22;;
40629;SDS011;26329;40.388;-3.710;2022-07-24T05:08:49;5.75;;;2.20;;
40629;SDS011;26329;40.388;-3.710;2022-07-24T05:18:52;4.53;;;2.30;;
40629;SDS011;26329;40.388;-3.710;2022-07-24T05:28:54;7.97;;;2.33;;
40629;SDS011;26329;40.388;-3.710;2022-07-24T05:38:56;9.75;;;2.90;;
40629;SDS011;26329;40.388;-3.710;2022-07-24T05:48:57;7.35;;;3.30;;
40629;SDS011;26329;40.388;-3.710;2022-07-24T05:58:59;14.38;;;4.95;;
40629;SDS011;26329;40.388;-3.710;2022-07-24T06:09:02;13.30;;;6.47;;
40629;SDS011;26329;40.388;-3.710;2022-07-24T06:19:04;12.00;;;5.90;;
40629;SDS011;26329;40.388;-3.710;2022-07-24T06:29:06;10.10;;;4.97;;
40629;SDS011;26329;40.388;-3.710;2022-07-24T06:39:07;35.33;;;5.43;;
40629;SDS011;26329;40.388;-3.710;2022-07-24T06:49:09;5.78;;;2.55;;
40629;SDS011;26329;40.388;-3.710;2022-07-24T06:59:10;6.65;;;2.60;;
40629;SDS011;26329;40.388;-3.710;2022-07-24T07:09:13;10.98;;;2.75;;
40629;SDS011;26329;40.388;-3.710;2022-07-24T07:19:15;14.85;;;3.83;;
40629;SDS011;26329;40.388;-3.710;2022-07-24T07:29:17;9.57;;;3.42;;
40629;SDS011;26329;40.388;-3.710;2022-07-24T07:39:19;8.65;;;4.00;;
40629;SDS011;26329;40.388;-3.710;2022-07-24T07:49:21;7.57;;;4.45;;
40629;SDS011;26329;40.388;-3.710;2022-07-24T07:59:24;21.85;;;5.22;;
40629;SDS011;26329;40.388;-3.710;2022-07-24T08:09:26;11.05;;;5.75;;
40629;SDS011;26329;40.388;-3.710;2022-07-24T08:19:28;12.60;;;5.32;;
40629;SDS011;26329;40.388;-3.710;2022-07-24T08:29:30;7.22;;;3.47;;
40629;SDS011;26329;40.388;-3.710;2022-07-24T08:39:32;13.82;;;3.08;;
40629;SDS011;26329;40.388;-3.710;2022-07-24T08:49:35;12.60;;;2.88;;
40629;SDS011;26329;40.388;-3.710;2022-07-24T08:59:37;12.63;;;3.35;;
40629;SDS011;26329;40.388;-3.710;2022-07-24T09:09:39;12.18;;;2.63;;
40629;SDS011;26329;40.388;-3.710;2022-07-24T09:29:56;5.13;;;2.35;;
40629;SDS011;26329;40.388;-3.710;2022-07-24T09:40:07;9.77;;;2.17;;
40629;SDS011;26329;40.388;-3.710;2022-07-24T09:50:11;6.53;;;2.30;;
40629;SDS011;26329;40.388;-3.710;2022-07-24T10:00:14;5.90;;;2.30;;
40629;SDS011;26329;40.388;-3.710;2022-07-24T10:10:17;8.57;;;1.63;;
40629;SDS011;26329;40.388;-3.710;2022-07-24T10:20:24;5.68;;;3.00;;
40629;SDS011;26329;40.388;-3.710;2022-07-24T10:30:29;2.00;;;1.20;;
40629;SDS011;26329;40.388;-3.710;2022-07-24T10:40:48;3.58;;;1.13;;
40629;SDS011;26329;40.388;-3.710;2022-07-24T11:01:26;6.25;;;4.32;;
40629;SDS011;26329;40.388;-3.710;2022-07-24T11:11:29;3.53;;;0.65;;
40629;SDS011;26329;40.388;-3.710;2022-07-24T11:21:35;5.13;;;0.55;;
40629;SDS011;26329;40.388;-3.710;2022-07-24T11:31:37;1.83;;;0.40;;
40629;SDS011;26329;40.388;-3.710;2022-07-24T11:41:49;1.55;;;0.40;;
40629;SDS011;26329;40.388;-3.710;2022-07-24T11:51:52;1.85;;;0.30;;
40629;SDS011;26329;40.388;-3.710;2022-07-24T12:01:55;0.98;;;0.20;;
40629;SDS011;26329;40.388;-3.710;2022-07-24T12:11:57;1.42;;;0.47;;
40629;SDS011;26329;40.388;-3.710;2022-07-24T12:21:59;3.78;;;0.10;;
40629;SDS011;26329;40.388;-3.710;2022-07-24T12:32:14;3.33;;;0.90;;
40629;SDS011;26329;40.388;-3.710;2022-07-24T12:42:17;0.90;;;0.20;;
40629;SDS011;26329;40.388;-3.710;2022-07-24T12:52:21;4.60;;;0.80;;
40629;SDS011;26329;40.388;-3.710;2022-07-24T13:02:25;1.88;;;0.10;;
40629;SDS011;26329;40.388;-3.710;2022-07-24T13:12:28;1.77;;;0.40;;
40629;SDS011;26329;40.388;-3.710;2022-07-24T13:22:30;3.63;;;0.30;;
40629;SDS011;26329;40.388;-3.710;2022-07-24T13:32:33;5.88;;;0.40;;
40629;SDS011;26329;40.388;-3.710;2022-07-24T13:42:35;4.75;;;1.13;;
40629;SDS011;26329;40.388;-3.710;2022-07-24T13:52:37;7.90;;;1.55;;
40629;SDS011;26329;40.388;-3.710;2022-07-24T14:02:39;5.13;;;0.90;;
40629;SDS011;26329;40.388;-3.710;2022-07-24T14:12:41;8.85;;;1.08;;
40629;SDS011;26329;40.388;-3.710;2022-07-24T14:22:44;8.60;;;2.13;;
40629;SDS011;26329;40.388;-3.710;2022-07-24T14:32:45;9.02;;;1.50;;
40629;SDS011;26329;40.388;-3.710;2022-07-24T14:42:47;5.13;;;1.23;;
40629;SDS011;26329;40.388;-3.710;2022-07-24T14:52:49;13.30;;;1.90;;
40629;SDS011;26329;40.388;-3.710;2022-07-24T15:02:51;16.98;;;3.65;;
40629;SDS011;26329;40.388;-3.710;2022-07-24T15:12:52;16.70;;;2.50;;
40629;SDS011;26329;40.388;-3.710;2022-07-24T15:22:54;15.55;;;2.00;;
40629;SDS011;26329;40.388;-3.710;2022-07-24T15:32:56;18.65;;;2.95;;
40629;SDS011;26329;40.388;-3.710;2022-07-24T15:42:58;17.77;;;3.22;;
40629;SDS011;26329;40.388;-3.710;2022-07-24T15:53:01;23.83;;;2.78;;
40629;SDS011;26329;40.388;-3.710;2022-07-24T16:03:03;23.30;;;3.70;;
40629;SDS011;26329;40.388;-3.710;2022-07-24T16:13:04;25.42;;;3.88;;
40629;SDS011;26329;40.388;-3.710;2022-07-24T16:23:06;26.05;;;4.38;;
40629;SDS011;26329;40.388;-3.710;2022-07-24T16:33:08;35.40;;;4.70;;
40629;SDS011;26329;40.388;-3.710;2022-07-24T16:43:09;27.08;;;4.03;;
40629;SDS011;26329;40.388;-3.710;2022-07-24T16:53:11;34.10;;;4.30;;
40629;SDS011;26329;40.388;-3.710;2022-07-24T17:03:13;27.13;;;4.10;;
40629;SDS011;26329;40.388;-3.710;2022-07-24T17:13:14;29.73;;;3.95;;
40629;SDS011;26329;40.388;-3.710;2022-07-24T17:23:16;31.58;;;4.18;;
40629;SDS011;26329;40.388;-3.710;2022-07-24T17:33:18;26.77;;;3.92;;
40629;SDS011;26329;40.388;-3.710;2022-07-24T17:43:20;29.98;;;4.38;;
40629;SDS011;26329;40.388;-3.710;2022-07-24T17:53:22;29.98;;;3.50;;
40629;SDS011;26329;40.388;-3.710;2022-07-24T18:03:23;22.83;;;3.00;;
40629;SDS011;26329;40.388;-3.710;2022-07-24T18:13:25;25.65;;;4.03;;
40629;SDS011;26329;40.388;-3.710;2022-07-24T18:23:27;23.65;;;2.90;;
40629;SDS011;26329;40.388;-3.710;2022-07-24T18:33:28;23.67;;;3.50;;
40629;SDS011;26329;40.388;-3.710;2022-07-24T18:43:30;26.20;;;3.40;;
40629;SDS011;26329;40.388;-3.710;2022-07-24T18:53:31;24.42;;;3.58;;
40629;SDS011;26329;40.388;-3.710;2022-07-24T19:03:33;30.83;;;3.50;;
40629;SDS011;26329;40.388;-3.710;2022-07-24T19:13:34;25.73;;;2.83;;
40629;SDS011;26329;40.388;-3.710;2022-07-24T19:23:35;17.88;;;2.85;;
40629;SDS011;26329;40.388;-3.710;2022-07-24T19:33:37;20.15;;;3.85;;
40629;SDS011;26329;40.388;-3.710;2022-07-24T19:43:38;25.50;;;4.28;;
40629;SDS011;26329;40.388;-3.710;2022-07-24T19:53:40;15.52;;;3.70;;
40629;SDS011;26329;40.388;-3.710;2022-07-24T20:03:42;18.45;;;3.65;;
40629;SDS011;26329;40.388;-3.710;2022-07-24T20:13:43;26.10;;;4.07;;
40629;SDS011;26329;40.388;-3.710;2022-07-24T20:23:45;20.33;;;3.90;;
40629;SDS011;26329;40.388;-3.710;2022-07-24T20:33:46;25.15;;;3.97;;
40629;SDS011;26329;40.388;-3.710;2022-07-24T20:43:48;29.50;;;9.07;;
40629;SDS011;26329;40.388;-3.710;2022-07-24T20:53:49;26.80;;;4.60;;
40629;SDS011;26329;40.388;-3.710;2022-07-24T21:03:51;25.55;;;3.03;;
40629;SDS011;26329;40.388;-3.710;2022-07-24T21:13:53;22.35;;;2.83;;
40629;SDS011;26329;40.388;-3.710;2022-07-24T21:23:54;34.40;;;3.85;;
40629;SDS011;26329;40.388;-3.710;2022-07-24T21:33:56;28.23;;;3.17;;
40629;SDS011;26329;40.388;-3.710;2022-07-24T21:43:57;23.95;;;3.65;;
40629;SDS011;26329;40.388;-3.710;2022-07-24T21:53:58;27.52;;;2.92;;
40629;SDS011;26329;40.388;-3.710;2022-07-24T22:04:01;23.15;;;3.08;;
40629;SDS011;26329;40.388;-3.710;2022-07-24T22:14:03;23.42;;;2.80;;
40629;SDS011;26329;40.388;-3.710;2022-07-24T22:24:06;20.40;;;4.13;;
40629;SDS011;26329;40.388;-3.710;2022-07-24T22:34:08;27.42;;;3.15;;
40629;SDS011;26329;40.388;-3.710;2022-07-24T22:44:10;19.13;;;4.55;;
40629;SDS011;26329;40.388;-3.710;2022-07-24T22:54:13;17.73;;;2.75;;
40629;SDS011;26329;40.388;-3.710;2022-07-24T23:04:15;22.15;;;4.25;;
40629;SDS011;26329;40.388;-3.710;2022-07-24T23:14:17;20.25;;;2.92;;
40629;SDS011;26329;40.388;-3.710;2022-07-24T23:24:18;22.60;;;3.35;;
40629;SDS011;26329;40.388;-3.710;2022-07-24T23:34:19;20.52;;;3.70;;
40629;SDS011;26329;40.388;-3.710;2022-07-24T23:44:21;20.75;;;3.13;;
40629;SDS011;26329;40.388;-3.710;2022-07-24T23:54:22;23.17;;;2.78;;
